sensor_id;sensor_type;location;lat;lon;timestamp;pressure;altitude;pressure_sealevel;temperature;humidity
4469;BME280;2247;42.666;23.292;2023-11-21T00:00:12;94194.78;;;10.64;57.61
4469;BME280;2247;42.666;23.292;2023-11-21T00:02:39;94186.56;;;10.66;57.52
4469;BME280;2247;42.666;23.292;2023-11-21T00:05:07;94185.50;;;10.67;57.88
4469;BME280;2247;42.666;23.292;2023-11-21T00:07:35;94187.34;;;10.66;57.70
4469;BME280;2247;42.666;23.292;2023-11-21T00:10:02;94187.63;;;10.65;57.58
4469;BME280;2247;42.666;23.292;2023-11-21T00:12:30;94187.81;;;10.74;57.50
4469;BME280;2247;42.666;23.292;2023-11-21T00:14:57;94191.78;;;10.76;57.65
4469;BME280;2247;42.666;23.292;2023-11-21T00:17:25;94198.88;;;10.76;57.35
4469;BME280;2247;42.666;23.292;2023-11-21T00:19:52;94200.94;;;10.79;57.36
4469;BME280;2247;42.666;23.292;2023-11-21T00:22:19;94192.56;;;10.77;57.33
4469;BME280;2247;42.666;23.292;2023-11-21T00:24:46;94171.31;;;10.63;57.18
4469;BME280;2247;42.666;23.292;2023-11-21T00:27:13;94189.13;;;10.76;57.53
4469;BME280;2247;42.666;23.292;2023-11-21T00:29:40;94185.19;;;10.74;57.71
4469;BME280;2247;42.666;23.292;2023-11-21T00:32:07;94169.19;;;10.65;57.39
4469;BME280;2247;42.666;23.292;2023-11-21T00:34:35;94181.44;;;10.80;57.39
4469;BME280;2247;42.666;23.292;2023-11-21T00:37:02;94180.38;;;10.81;56.95
4469;BME280;2247;42.666;23.292;2023-11-21T00:39:29;94179.13;;;10.78;57.03
4469;BME280;2247;42.666;23.292;2023-11-21T00:41:58;94183.88;;;10.76;57.19
4469;BME280;2247;42.666;23.292;2023-11-21T00:44:25;94184.38;;;10.78;57.12
4469;BME280;2247;42.666;23.292;2023-11-21T00:46:52;94183.59;;;10.78;57.23
4469;BME280;2247;42.666;23.292;2023-11-21T00:49:19;94190.16;;;10.80;56.96
4469;BME280;2247;42.666;23.292;2023-11-21T00:51:48;94187.50;;;10.80;57.09
4469;BME280;2247;42.666;23.292;2023-11-21T00:54:15;94183.59;;;10.78;57.33
4469;BME280;2247;42.666;23.292;2023-11-21T00:56:42;94182.56;;;10.74;57.04
4469;BME280;2247;42.666;23.292;2023-11-21T00:59:09;94176.78;;;10.72;57.31
4469;BME280;2247;42.666;23.292;2023-11-21T01:01:36;94172.28;;;10.72;57.11
4469;BME280;2247;42.666;23.292;2023-11-21T01:04:03;94170.44;;;10.73;56.86
4469;BME280;2247;42.666;23.292;2023-11-21T01:06:32;94174.16;;;10.72;56.80
4469;BME280;2247;42.666;23.292;2023-11-21T01:09:00;94170.75;;;10.71;56.96
4469;BME280;2247;42.666;23.292;2023-11-21T01:11:29;94159.91;;;10.73;56.76
4469;BME280;2247;42.666;23.292;2023-11-21T01:13:56;94165.38;;;10.81;56.81
4469;BME280;2247;42.666;23.292;2023-11-21T01:16:23;94168.59;;;10.73;56.88
4469;BME280;2247;42.666;23.292;2023-11-21T01:18:50;94162.59;;;10.68;57.14
4469;BME280;2247;42.666;23.292;2023-11-21T01:21:17;94166.53;;;10.65;56.91
4469;BME280;2247;42.666;23.292;2023-11-21T01:23:43;94167.16;;;10.57;56.95
4469;BME280;2247;42.666;23.292;2023-11-21T01:26:11;94183.03;;;10.47;57.24
4469;BME280;2247;42.666;23.292;2023-11-21T01:28:38;94172.50;;;10.47;57.32
4469;BME280;2247;42.666;23.292;2023-11-21T01:31:05;94171.75;;;10.41;57.27
4469;BME280;2247;42.666;23.292;2023-11-21T01:33:32;94169.13;;;10.41;57.11
4469;BME280;2247;42.666;23.292;2023-11-21T01:35:59;94162.00;;;10.42;57.20
4469;BME280;2247;42.666;23.292;2023-11-21T01:38:26;94173.59;;;10.41;57.13
4469;BME280;2247;42.666;23.292;2023-11-21T01:40:53;94181.22;;;10.42;57.08
4469;BME280;2247;42.666;23.292;2023-11-21T01:43:21;94173.59;;;10.41;57.14
4469;BME280;2247;42.666;23.292;2023-11-21T01:45:48;94170.75;;;10.37;57.10
4469;BME280;2247;42.666;23.292;2023-11-21T01:48:15;94165.75;;;10.36;57.29
4469;BME280;2247;42.666;23.292;2023-11-21T01:50:42;94161.25;;;10.36;57.09
4469;BME280;2247;42.666;23.292;2023-11-21T01:53:11;94157.59;;;10.32;57.32
4469;BME280;2247;42.666;23.292;2023-11-21T01:55:40;94155.00;;;10.27;57.42
4469;BME280;2247;42.666;23.292;2023-11-21T01:58:07;94165.00;;;10.25;57.68
4469;BME280;2247;42.666;23.292;2023-11-21T02:00:36;94167.38;;;10.26;57.42
4469;BME280;2247;42.666;23.292;2023-11-21T02:03:04;94170.78;;;10.27;57.55
4469;BME280;2247;42.666;23.292;2023-11-21T02:05:32;94159.53;;;10.16;57.85
4469;BME280;2247;42.666;23.292;2023-11-21T02:07:59;94166.63;;;10.16;57.70
4469;BME280;2247;42.666;23.292;2023-11-21T02:10:26;94167.16;;;10.13;57.69
4469;BME280;2247;42.666;23.292;2023-11-21T02:12:53;94166.63;;;10.16;57.72
4469;BME280;2247;42.666;23.292;2023-11-21T02:15:22;94167.69;;;10.15;57.76
4469;BME280;2247;42.666;23.292;2023-11-21T02:17:54;94156.91;;;10.16;57.94
4469;BME280;2247;42.666;23.292;2023-11-21T02:20:23;94167.22;;;10.08;58.13
4469;BME280;2247;42.666;23.292;2023-11-21T02:22:54;94164.56;;;10.08;58.16
4469;BME280;2247;42.666;23.292;2023-11-21T02:25:23;94153.00;;;10.09;58.26
4469;BME280;2247;42.666;23.292;2023-11-21T02:27:50;94135.25;;;9.80;58.58
4469;BME280;2247;42.666;23.292;2023-11-21T02:30:17;94155.09;;;10.07;58.25
4469;BME280;2247;42.666;23.292;2023-11-21T02:32:44;94165.63;;;10.07;58.28
4469;BME280;2247;42.666;23.292;2023-11-21T02:35:11;94156.16;;;10.06;58.29
4469;BME280;2247;42.666;23.292;2023-11-21T02:37:38;94160.38;;;10.07;58.21
4469;BME280;2247;42.666;23.292;2023-11-21T02:40:09;94154.03;;;10.08;58.16
4469;BME280;2247;42.666;23.292;2023-11-21T02:42:38;94123.91;;;9.85;57.85
4469;BME280;2247;42.666;23.292;2023-11-21T02:45:06;94146.94;;;10.08;57.81
4469;BME280;2247;42.666;23.292;2023-11-21T02:47:33;94155.06;;;10.12;57.71
4469;BME280;2247;42.666;23.292;2023-11-21T02:50:00;94161.91;;;10.13;57.79
4469;BME280;2247;42.666;23.292;2023-11-21T02:52:27;94150.84;;;10.11;57.47
4469;BME280;2247;42.666;23.292;2023-11-21T02:54:53;94149.31;;;10.05;57.71
4469;BME280;2247;42.666;23.292;2023-11-21T02:57:22;94153.25;;;10.07;57.46
4469;BME280;2247;42.666;23.292;2023-11-21T02:59:49;94146.69;;;10.05;57.78
4469;BME280;2247;42.666;23.292;2023-11-21T03:02:16;94146.69;;;10.05;57.79
4469;BME280;2247;42.666;23.292;2023-11-21T03:04:43;94146.94;;;10.03;57.86
4469;BME280;2247;42.666;23.292;2023-11-21T03:07:10;94139.06;;;10.03;57.65
4469;BME280;2247;42.666;23.292;2023-11-21T03:09:37;94145.41;;;10.02;57.74
4469;BME280;2247;42.666;23.292;2023-11-21T03:12:05;94141.94;;;10.07;57.65
4469;BME280;2247;42.666;23.292;2023-11-21T03:14:33;94143.25;;;10.04;57.75
4469;BME280;2247;42.666;23.292;2023-11-21T03:17:00;94146.41;;;10.06;57.73
4469;BME280;2247;42.666;23.292;2023-11-21T03:19:28;94126.28;;;9.86;57.86
4469;BME280;2247;42.666;23.292;2023-11-21T03:21:54;94160.69;;;9.95;58.27
4469;BME280;2247;42.666;23.292;2023-11-21T03:24:21;94165.47;;;9.88;58.32
4469;BME280;2247;42.666;23.292;2023-11-21T03:26:49;94163.41;;;9.80;58.63
4469;BME280;2247;42.666;23.292;2023-11-21T03:29:16;94164.69;;;9.82;58.27
4469;BME280;2247;42.666;23.292;2023-11-21T03:31:44;94171.03;;;9.81;58.48
4469;BME280;2247;42.666;23.292;2023-11-21T03:34:19;94161.03;;;9.78;58.59
4469;BME280;2247;42.666;23.292;2023-11-21T03:36:46;94166.06;;;9.75;58.90
4469;BME280;2247;42.666;23.292;2023-11-21T03:39:13;94164.47;;;9.79;58.83
4469;BME280;2247;42.666;23.292;2023-11-21T03:41:40;94156.03;;;9.77;58.57
4469;BME280;2247;42.666;23.292;2023-11-21T03:44:07;94153.16;;;9.78;58.44
4469;BME280;2247;42.666;23.292;2023-11-21T03:46:33;94145.25;;;9.78;58.42
4469;BME280;2247;42.666;23.292;2023-11-21T03:49:02;94144.25;;;9.74;58.27
4469;BME280;2247;42.666;23.292;2023-11-21T03:51:28;94137.53;;;9.43;58.93
4469;BME280;2247;42.666;23.292;2023-11-21T03:53:55;94143.88;;;9.27;59.68
4469;BME280;2247;42.666;23.292;2023-11-21T03:56:22;94136.31;;;9.15;60.34
4469;BME280;2247;42.666;23.292;2023-11-21T03:58:49;94122.69;;;8.93;60.76
4469;BME280;2247;42.666;23.292;2023-11-21T04:01:20;94142.13;;;9.02;61.13
4469;BME280;2247;42.666;23.292;2023-11-21T04:03:48;94137.16;;;8.95;61.35
4469;BME280;2247;42.666;23.292;2023-11-21T04:06:17;94094.38;;;8.64;61.42
4469;BME280;2247;42.666;23.292;2023-11-21T04:08:44;94123.53;;;8.73;61.99
4469;BME280;2247;42.666;23.292;2023-11-21T04:11:11;94136.13;;;8.86;61.59
4469;BME280;2247;42.666;23.292;2023-11-21T04:13:38;94127.72;;;8.89;61.58
4469;BME280;2247;42.666;23.292;2023-11-21T04:16:07;94084.97;;;8.53;61.98
4469;BME280;2247;42.666;23.292;2023-11-21T04:18:34;94125.88;;;8.90;61.73
4469;BME280;2247;42.666;23.292;2023-11-21T04:21:01;94129.53;;;8.94;61.57
4469;BME280;2247;42.666;23.292;2023-11-21T04:23:29;94132.44;;;8.97;61.58
4469;BME280;2247;42.666;23.292;2023-11-21T04:25:57;94110.38;;;8.88;61.26
4469;BME280;2247;42.666;23.292;2023-11-21T04:28:24;94123.97;;;9.11;61.00
4469;BME280;2247;42.666;23.292;2023-11-21T04:30:51;94136.06;;;9.17;60.88
4469;BME280;2247;42.666;23.292;2023-11-21T04:33:18;94129.75;;;9.07;61.18
4469;BME280;2247;42.666;23.292;2023-11-21T04:35:45;94141.03;;;9.13;60.89
4469;BME280;2247;42.666;23.292;2023-11-21T04:38:11;94138.41;;;9.13;61.06
4469;BME280;2247;42.666;23.292;2023-11-21T04:40:40;94132.09;;;9.14;60.75
4469;BME280;2247;42.666;23.292;2023-11-21T04:43:06;94141.84;;;9.08;61.05
4469;BME280;2247;42.666;23.292;2023-11-21T04:45:33;94142.13;;;9.02;61.21
4469;BME280;2247;42.666;23.292;2023-11-21T04:48:00;94138.72;;;9.01;61.17
4469;BME280;2247;42.666;23.292;2023-11-21T04:50:27;94143.69;;;9.08;60.98
4469;BME280;2247;42.666;23.292;2023-11-21T04:52:54;94143.94;;;9.06;60.80
4469;BME280;2247;42.666;23.292;2023-11-21T04:55:21;94142.13;;;9.12;61.01
4469;BME280;2247;42.666;23.292;2023-11-21T04:57:49;94125.28;;;9.08;60.52
4469;BME280;2247;42.666;23.292;2023-11-21T05:00:17;94135.28;;;9.11;60.76
4469;BME280;2247;42.666;23.292;2023-11-21T05:02:44;94144.97;;;9.16;60.93
4469;BME280;2247;42.666;23.292;2023-11-21T05:05:12;94146.31;;;9.18;60.75
4469;BME280;2247;42.666;23.292;2023-11-21T05:07:40;94163.38;;;9.26;60.56
4469;BME280;2247;42.666;23.292;2023-11-21T05:10:08;94146.00;;;9.30;60.58
4469;BME280;2247;42.666;23.292;2023-11-21T05:12:37;94097.44;;;9.07;60.46
4469;BME280;2247;42.666;23.292;2023-11-21T05:15:08;94136.25;;;9.35;60.14
4469;BME280;2247;42.666;23.292;2023-11-21T05:17:36;94105.81;;;9.19;60.29
4469;BME280;2247;42.666;23.292;2023-11-21T05:25:14;94130.94;;;9.45;60.44
4469;BME280;2247;42.666;23.292;2023-11-21T05:27:43;94132.75;;;9.50;60.23
4469;BME280;2247;42.666;23.292;2023-11-21T05:30:12;94131.97;;;9.49;60.08
4469;BME280;2247;42.666;23.292;2023-11-21T05:32:40;94134.31;;;9.56;60.11
4469;BME280;2247;42.666;23.292;2023-11-21T05:35:08;94147.72;;;9.60;59.98
4469;BME280;2247;42.666;23.292;2023-11-21T05:37:39;94146.19;;;9.54;60.17
4469;BME280;2247;42.666;23.292;2023-11-21T05:40:07;94129.66;;;9.38;59.97
4469;BME280;2247;42.666;23.292;2023-11-21T05:42:35;94148.25;;;9.57;59.93
4469;BME280;2247;42.666;23.292;2023-11-21T05:45:04;94152.19;;;9.59;59.99
4469;BME280;2247;42.666;23.292;2023-11-21T05:47:37;94153.50;;;9.57;60.17
4469;BME280;2247;42.666;23.292;2023-11-21T05:50:06;94145.88;;;9.60;60.10
4469;BME280;2247;42.666;23.292;2023-11-21T05:52:36;94133.53;;;9.61;60.47
4469;BME280;2247;42.666;23.292;2023-11-21T05:55:04;94136.13;;;9.66;59.99
4469;BME280;2247;42.666;23.292;2023-11-21T05:57:32;94135.28;;;9.70;59.81
4469;BME280;2247;42.666;23.292;2023-11-21T05:59:59;94139.44;;;9.86;59.38
4469;BME280;2247;42.666;23.292;2023-11-21T06:02:26;94148.13;;;9.87;59.28
4469;BME280;2247;42.666;23.292;2023-11-21T06:04:55;94144.72;;;9.81;59.63
4469;BME280;2247;42.666;23.292;2023-11-21T06:07:21;94145.50;;;9.82;59.07
4469;BME280;2247;42.666;23.292;2023-11-21T06:09:48;94138.19;;;9.74;59.14
4469;BME280;2247;42.666;23.292;2023-11-21T06:12:15;94137.69;;;9.67;59.19
4469;BME280;2247;42.666;23.292;2023-11-21T06:14:42;94145.31;;;9.63;59.14
4469;BME280;2247;42.666;23.292;2023-11-21T06:17:09;94159.25;;;9.69;58.71
4469;BME280;2247;42.666;23.292;2023-11-21T06:19:36;94157.13;;;9.71;59.42
4469;BME280;2247;42.666;23.292;2023-11-21T06:22:04;94157.91;;;9.71;59.43
4469;BME280;2247;42.666;23.292;2023-11-21T06:24:31;94151.59;;;9.72;59.12
4469;BME280;2247;42.666;23.292;2023-11-21T06:26:58;94158.19;;;9.70;59.42
4469;BME280;2247;42.666;23.292;2023-11-21T06:29:25;94163.16;;;9.76;59.04
4469;BME280;2247;42.666;23.292;2023-11-21T06:31:52;94158.16;;;9.80;58.95
4469;BME280;2247;42.666;23.292;2023-11-21T06:34:20;94158.31;;;9.99;58.79
4469;BME280;2247;42.666;23.292;2023-11-21T06:36:47;94154.53;;;10.10;58.49
4469;BME280;2247;42.666;23.292;2023-11-21T06:39:15;94171.69;;;10.07;58.44
4469;BME280;2247;42.666;23.292;2023-11-21T06:41:42;94179.81;;;10.11;58.18
4469;BME280;2247;42.666;23.292;2023-11-21T06:44:09;94174.53;;;10.11;58.02
4469;BME280;2247;42.666;23.292;2023-11-21T06:46:36;94176.38;;;10.20;58.51
4469;BME280;2247;42.666;23.292;2023-11-21T06:49:04;94187.66;;;10.26;58.23
4469;BME280;2247;42.666;23.292;2023-11-21T06:51:32;94177.38;;;10.30;57.71
4469;BME280;2247;42.666;23.292;2023-11-21T06:53:58;94185.16;;;10.45;57.87
4469;BME280;2247;42.666;23.292;2023-11-21T06:56:26;94154.88;;;10.42;57.64
4469;BME280;2247;42.666;23.292;2023-11-21T06:58:53;94180.81;;;10.64;57.34
4469;BME280;2247;42.666;23.292;2023-11-21T07:01:20;94177.81;;;10.76;57.07
4469;BME280;2247;42.666;23.292;2023-11-21T07:03:47;94185.31;;;10.92;57.15
4469;BME280;2247;42.666;23.292;2023-11-21T07:06:14;94180.81;;;10.93;56.38
4469;BME280;2247;42.666;23.292;2023-11-21T07:08:42;94184.16;;;11.03;56.34
4469;BME280;2247;42.666;23.292;2023-11-21T07:11:09;94173.78;;;11.12;55.05
4469;BME280;2247;42.666;23.292;2023-11-21T07:13:37;94174.13;;;11.05;55.64
4469;BME280;2247;42.666;23.292;2023-11-21T07:16:04;94173.09;;;11.01;56.25
4469;BME280;2247;42.666;23.292;2023-11-21T07:18:31;94165.34;;;11.10;55.97
4469;BME280;2247;42.666;23.292;2023-11-21T07:20:58;94159.97;;;11.20;55.80
4469;BME280;2247;42.666;23.292;2023-11-21T07:23:25;94169.81;;;11.38;55.77
4469;BME280;2247;42.666;23.292;2023-11-21T07:25:52;94138.56;;;11.27;55.36
4469;BME280;2247;42.666;23.292;2023-11-21T07:28:18;94169.66;;;11.54;55.28
4469;BME280;2247;42.666;23.292;2023-11-21T07:30:47;94175.25;;;11.71;54.52
4469;BME280;2247;42.666;23.292;2023-11-21T07:33:14;94174.19;;;11.72;54.50
4469;BME280;2247;42.666;23.292;2023-11-21T07:35:40;94168.53;;;11.60;53.95
4469;BME280;2247;42.666;23.292;2023-11-21T07:38:07;94173.66;;;11.70;53.96
4469;BME280;2247;42.666;23.292;2023-11-21T07:40:34;94170.44;;;11.78;54.94
4469;BME280;2247;42.666;23.292;2023-11-21T07:43:01;94169.72;;;11.91;57.86
4469;BME280;2247;42.666;23.292;2023-11-21T07:45:28;94178.53;;;12.05;57.81
4469;BME280;2247;42.666;23.292;2023-11-21T07:47:56;94170.97;;;12.17;54.82
4469;BME280;2247;42.666;23.292;2023-11-21T07:50:24;94159.91;;;12.15;53.76
4469;BME280;2247;42.666;23.292;2023-11-21T07:52:52;94169.34;;;12.21;53.75
4469;BME280;2247;42.666;23.292;2023-11-21T07:55:19;94171.97;;;12.21;52.82
4469;BME280;2247;42.666;23.292;2023-11-21T07:57:46;94161.06;;;12.09;52.96
4469;BME280;2247;42.666;23.292;2023-11-21T08:00:14;94155.34;;;12.02;53.27
4469;BME280;2247;42.666;23.292;2023-11-21T08:02:41;94157.41;;;12.05;53.01
4469;BME280;2247;42.666;23.292;2023-11-21T08:05:12;94147.41;;;12.02;53.11
4469;BME280;2247;42.666;23.292;2023-11-21T08:07:39;94150.19;;;11.92;53.32
4469;BME280;2247;42.666;23.292;2023-11-21T08:10:07;94152.72;;;12.02;53.20
4469;BME280;2247;42.666;23.292;2023-11-21T08:12:35;94125.28;;;11.79;53.43
4469;BME280;2247;42.666;23.292;2023-11-21T08:15:05;94148.50;;;12.01;53.18
4469;BME280;2247;42.666;23.292;2023-11-21T08:17:32;94152.19;;;12.00;55.18
4469;BME280;2247;42.666;23.292;2023-11-21T08:19:59;94156.63;;;12.05;55.54
4469;BME280;2247;42.666;23.292;2023-11-21T08:22:29;94151.06;;;12.06;56.50
4469;BME280;2247;42.666;23.292;2023-11-21T08:24:56;94140.84;;;12.18;57.90
4469;BME280;2247;42.666;23.292;2023-11-21T08:27:23;94146.41;;;12.36;55.27
4469;BME280;2247;42.666;23.292;2023-11-21T08:29:50;94145.72;;;12.30;53.85
4469;BME280;2247;42.666;23.292;2023-11-21T08:32:17;94142.63;;;12.23;54.16
4469;BME280;2247;42.666;23.292;2023-11-21T08:34:45;94147.19;;;12.17;53.97
4469;BME280;2247;42.666;23.292;2023-11-21T08:37:14;94135.28;;;12.20;54.01
4469;BME280;2247;42.666;23.292;2023-11-21T08:39:43;94140.47;;;12.44;52.52
4469;BME280;2247;42.666;23.292;2023-11-21T08:42:10;94145.91;;;12.34;53.01
4469;BME280;2247;42.666;23.292;2023-11-21T08:44:37;94149.63;;;12.33;52.91
4469;BME280;2247;42.666;23.292;2023-11-21T08:47:04;94142.56;;;12.28;52.69
4469;BME280;2247;42.666;23.292;2023-11-21T08:49:31;94146.84;;;12.43;52.61
4469;BME280;2247;42.666;23.292;2023-11-21T08:51:58;94133.53;;;12.48;52.32
4469;BME280;2247;42.666;23.292;2023-11-21T08:54:25;94138.31;;;12.46;52.46
4469;BME280;2247;42.666;23.292;2023-11-21T08:56:54;94137.88;;;12.57;52.76
4469;BME280;2247;42.666;23.292;2023-11-21T08:59:23;94121.16;;;12.62;52.23
4469;BME280;2247;42.666;23.292;2023-11-21T09:01:50;94116.94;;;12.61;51.44
4469;BME280;2247;42.666;23.292;2023-11-21T09:04:17;94110.97;;;12.69;51.69
4469;BME280;2247;42.666;23.292;2023-11-21T09:06:44;94111.56;;;12.66;50.90
4469;BME280;2247;42.666;23.292;2023-11-21T09:09:10;94098.66;;;12.65;50.78
4469;BME280;2247;42.666;23.292;2023-11-21T09:11:37;94093.00;;;12.52;51.15
4469;BME280;2247;42.666;23.292;2023-11-21T09:14:06;94086.38;;;12.55;51.80
4469;BME280;2247;42.666;23.292;2023-11-21T09:16:34;94083.63;;;12.60;51.90
4469;BME280;2247;42.666;23.292;2023-11-21T09:19:00;94072.41;;;12.68;51.16
4469;BME280;2247;42.666;23.292;2023-11-21T09:21:29;94070.81;;;12.67;51.38
4469;BME280;2247;42.666;23.292;2023-11-21T09:23:55;94061.81;;;12.68;51.79
4469;BME280;2247;42.666;23.292;2023-11-21T09:26:23;94047.41;;;12.60;51.54
4469;BME280;2247;42.666;23.292;2023-11-21T09:28:50;94050.72;;;12.52;51.51
4469;BME280;2247;42.666;23.292;2023-11-21T09:31:18;94042.50;;;12.54;52.00
4469;BME280;2247;42.666;23.292;2023-11-21T09:33:48;94030.69;;;12.51;52.47
4469;BME280;2247;42.666;23.292;2023-11-21T09:36:15;94009.31;;;12.48;52.24
4469;BME280;2247;42.666;23.292;2023-11-21T09:38:41;94025.59;;;12.55;52.49
4469;BME280;2247;42.666;23.292;2023-11-21T09:41:18;94021.88;;;12.70;52.52
4469;BME280;2247;42.666;23.292;2023-11-21T09:43:49;94023.84;;;12.78;52.20
4469;BME280;2247;42.666;23.292;2023-11-21T09:46:21;94019.34;;;12.78;52.21
4469;BME280;2247;42.666;23.292;2023-11-21T09:48:51;93996.13;;;12.89;51.73
4469;BME280;2247;42.666;23.292;2023-11-21T09:51:19;93992.41;;;12.90;51.61
4469;BME280;2247;42.666;23.292;2023-11-21T09:53:49;93981.56;;;12.91;52.02
4469;BME280;2247;42.666;23.292;2023-11-21T09:56:18;93972.72;;;12.82;51.90
4469;BME280;2247;42.666;23.292;2023-11-21T09:58:51;93973.53;;;12.69;52.14
4469;BME280;2247;42.666;23.292;2023-11-21T10:01:20;93977.13;;;12.73;51.97
4469;BME280;2247;42.666;23.292;2023-11-21T10:03:48;93968.50;;;12.81;51.35
4469;BME280;2247;42.666;23.292;2023-11-21T10:06:16;93974.84;;;13.08;51.66
4469;BME280;2247;42.666;23.292;2023-11-21T10:08:45;93970.47;;;13.17;50.87
4469;BME280;2247;42.666;23.292;2023-11-21T10:11:12;93971.72;;;13.33;51.23
4469;BME280;2247;42.666;23.292;2023-11-21T10:13:41;93957.00;;;13.40;50.32
4469;BME280;2247;42.666;23.292;2023-11-21T10:16:14;93958.81;;;13.54;49.81
4469;BME280;2247;42.666;23.292;2023-11-21T10:18:44;93945.19;;;13.60;49.40
4469;BME280;2247;42.666;23.292;2023-11-21T10:21:11;93929.56;;;13.36;49.41
4469;BME280;2247;42.666;23.292;2023-11-21T10:23:39;93956.25;;;13.26;50.34
4469;BME280;2247;42.666;23.292;2023-11-21T10:26:06;93949.09;;;13.27;50.13
4469;BME280;2247;42.666;23.292;2023-11-21T10:28:41;93944.50;;;13.19;50.52
4469;BME280;2247;42.666;23.292;2023-11-21T10:31:08;93942.25;;;13.26;50.27
4469;BME280;2247;42.666;23.292;2023-11-21T10:33:35;93944.56;;;13.41;51.03
4469;BME280;2247;42.666;23.292;2023-11-21T10:36:04;93945.03;;;13.43;50.84
4469;BME280;2247;42.666;23.292;2023-11-21T10:38:35;93901.94;;;13.29;50.72
4469;BME280;2247;42.666;23.292;2023-11-21T10:41:11;93933.81;;;13.60;50.40
4469;BME280;2247;42.666;23.292;2023-11-21T10:43:40;93920.28;;;13.61;50.01
4469;BME280;2247;42.666;23.292;2023-11-21T10:46:07;93929.03;;;13.70;49.91
4469;BME280;2247;42.666;23.292;2023-11-21T10:48:34;93923.69;;;13.84;49.74
4469;BME280;2247;42.666;23.292;2023-11-21T10:51:06;93912.56;;;13.96;48.61
4469;BME280;2247;42.666;23.292;2023-11-21T10:53:38;93895.53;;;13.88;48.36
4469;BME280;2247;42.666;23.292;2023-11-21T10:56:08;93892.09;;;13.88;48.65
4469;BME280;2247;42.666;23.292;2023-11-21T10:58:37;93908.78;;;13.97;48.53
4469;BME280;2247;42.666;23.292;2023-11-21T11:01:06;93908.25;;;14.08;47.61
4469;BME280;2247;42.666;23.292;2023-11-21T11:03:36;93910.69;;;13.96;47.45
4469;BME280;2247;42.666;23.292;2023-11-21T11:06:05;93901.16;;;13.95;48.20
4469;BME280;2247;42.666;23.292;2023-11-21T11:08:36;93909.28;;;13.99;48.25
4469;BME280;2247;42.666;23.292;2023-11-21T11:11:04;93895.44;;;14.02;48.32
4469;BME280;2247;42.666;23.292;2023-11-21T11:13:31;93867.63;;;13.91;47.86
4469;BME280;2247;42.666;23.292;2023-11-21T11:15:59;93893.94;;;14.18;47.66
4469;BME280;2247;42.666;23.292;2023-11-21T11:18:27;93895.25;;;14.29;47.94
4469;BME280;2247;42.666;23.292;2023-11-21T11:21:00;93869.53;;;14.30;47.29
4469;BME280;2247;42.666;23.292;2023-11-21T11:23:40;93871.75;;;14.36;47.41
4469;BME280;2247;42.666;23.292;2023-11-21T11:26:18;93875.22;;;14.45;46.79
4469;BME280;2247;42.666;23.292;2023-11-21T11:28:55;93867.22;;;14.37;47.16
4469;BME280;2247;42.666;23.292;2023-11-21T11:31:31;93849.38;;;14.20;46.88
4469;BME280;2247;42.666;23.292;2023-11-21T11:34:11;93855.75;;;14.19;47.81
4469;BME280;2247;42.666;23.292;2023-11-21T11:36:48;93867.03;;;14.33;47.07
4469;BME280;2247;42.666;23.292;2023-11-21T11:39:34;93866.50;;;14.45;46.74
4469;BME280;2247;42.666;23.292;2023-11-21T11:42:03;93863.97;;;14.40;46.35
4469;BME280;2247;42.666;23.292;2023-11-21T11:44:47;93870.16;;;14.35;46.73
4469;BME280;2247;42.666;23.292;2023-11-21T11:47:19;93876.06;;;14.32;47.16
4469;BME280;2247;42.666;23.292;2023-11-21T11:50:01;93861.06;;;14.19;47.27
4469;BME280;2247;42.666;23.292;2023-11-21T11:52:38;93884.50;;;14.34;47.62
4469;BME280;2247;42.666;23.292;2023-11-21T11:55:08;93870.25;;;14.44;48.01
4469;BME280;2247;42.666;23.292;2023-11-21T11:57:37;93857.59;;;14.41;48.12
4469;BME280;2247;42.666;23.292;2023-11-21T12:00:12;93855.59;;;14.15;48.35
4469;BME280;2247;42.666;23.292;2023-11-21T12:02:42;93868.38;;;14.13;48.97
4469;BME280;2247;42.666;23.292;2023-11-21T12:05:10;93874.16;;;14.15;49.18
4469;BME280;2247;42.666;23.292;2023-11-21T12:07:45;93867.13;;;14.19;49.81
4469;BME280;2247;42.666;23.292;2023-11-21T12:10:16;93870.28;;;14.22;50.49
4469;BME280;2247;42.666;23.292;2023-11-21T12:12:45;93876.34;;;14.22;51.78
4469;BME280;2247;42.666;23.292;2023-11-21T12:15:13;93878.88;;;14.27;51.67
4469;BME280;2247;42.666;23.292;2023-11-21T12:17:40;93882.00;;;14.29;50.26
4469;BME280;2247;42.666;23.292;2023-11-21T12:20:09;93877.19;;;14.31;50.68
4469;BME280;2247;42.666;23.292;2023-11-21T12:22:42;93862.38;;;14.30;51.27
4469;BME280;2247;42.666;23.292;2023-11-21T12:25:09;93856.75;;;14.32;51.07
4469;BME280;2247;42.666;23.292;2023-11-21T12:27:43;93843.28;;;14.19;51.22
4469;BME280;2247;42.666;23.292;2023-11-21T12:30:12;93861.69;;;14.25;51.02
4469;BME280;2247;42.666;23.292;2023-11-21T12:32:41;93876.22;;;14.27;51.38
4469;BME280;2247;42.666;23.292;2023-11-21T12:35:09;93849.03;;;14.13;52.15
4469;BME280;2247;42.666;23.292;2023-11-21T12:37:36;93870.31;;;14.30;52.36
4469;BME280;2247;42.666;23.292;2023-11-21T12:40:06;93856.59;;;14.28;52.60
4469;BME280;2247;42.666;23.292;2023-11-21T12:42:34;93864.09;;;14.35;52.79
4469;BME280;2247;42.666;23.292;2023-11-21T12:45:19;93860.34;;;14.36;52.89
4469;BME280;2247;42.666;23.292;2023-11-21T12:47:47;93827.53;;;14.14;52.45
4469;BME280;2247;42.666;23.292;2023-11-21T12:50:14;93853.97;;;14.37;53.04
4469;BME280;2247;42.666;23.292;2023-11-21T12:52:42;93822.44;;;14.27;53.13
4469;BME280;2247;42.666;23.292;2023-11-21T12:55:16;93841.31;;;14.34;53.66
4469;BME280;2247;42.666;23.292;2023-11-21T12:57:44;93850.81;;;14.26;53.74
4469;BME280;2247;42.666;23.292;2023-11-21T13:00:15;93830.22;;;14.23;53.52
4469;BME280;2247;42.666;23.292;2023-11-21T13:02:54;93830.81;;;14.20;53.70
4469;BME280;2247;42.666;23.292;2023-11-21T13:05:26;93833.81;;;14.27;52.84
4469;BME280;2247;42.666;23.292;2023-11-21T13:07:54;93788.84;;;13.96;52.91
4469;BME280;2247;42.666;23.292;2023-11-21T13:10:23;93833.00;;;14.18;52.66
4469;BME280;2247;42.666;23.292;2023-11-21T13:12:56;93818.94;;;14.09;53.15
4469;BME280;2247;42.666;23.292;2023-11-21T13:15:27;93823.16;;;14.10;53.51
4469;BME280;2247;42.666;23.292;2023-11-21T13:17:56;93812.22;;;14.03;53.11
4469;BME280;2247;42.666;23.292;2023-11-21T13:20:23;93788.44;;;13.80;53.29
4469;BME280;2247;42.666;23.292;2023-11-21T13:22:52;93821.31;;;14.10;53.81